sensor_id;sensor_type;location;lat;lon;timestamp;pressure;altitude;pressure_sealevel;temperature;humidity
77235;BME280;66253;50.526;14.974;2023-05-27T00:01:43;100020.05;;;11.02;58.37
77235;BME280;66253;50.526;14.974;2023-05-27T00:04:12;100022.64;;;11.02;57.96
77235;BME280;66253;50.526;14.974;2023-05-27T00:06:40;100021.54;;;10.99;58.17
77235;BME280;66253;50.526;14.974;2023-05-27T00:09:08;100020.86;;;10.95;58.35
77235;BME280;66253;50.526;14.974;2023-05-27T00:11:37;100023.17;;;10.90;58.59
77235;BME280;66253;50.526;14.974;2023-05-27T00:14:05;100021.37;;;10.84;58.50
77235;BME280;66253;50.526;14.974;2023-05-27T00:16:34;100023.67;;;10.78;58.66
77235;BME280;66253;50.526;14.974;2023-05-27T00:19:02;100022.56;;;10.73;58.52
77235;BME280;66253;50.526;14.974;2023-05-27T00:21:30;100020.75;;;10.63;58.82
77235;BME280;66253;50.526;14.974;2023-05-27T00:23:59;100019.64;;;10.53;58.90
77235;BME280;66253;50.526;14.974;2023-05-27T00:26:27;100017.69;;;10.47;59.17
77235;BME280;66253;50.526;14.974;2023-05-27T00:28:56;100016.95;;;10.44;59.21
77235;BME280;66253;50.526;14.974;2023-05-27T00:31:24;100015.96;;;10.43;59.73
77235;BME280;66253;50.526;14.974;2023-05-27T00:33:52;100015.50;;;10.42;59.78
77235;BME280;66253;50.526;14.974;2023-05-27T00:36:21;100015.40;;;10.40;59.59
77235;BME280;66253;50.526;14.974;2023-05-27T00:38:49;100016.02;;;10.38;59.56
77235;BME280;66253;50.526;14.974;2023-05-27T00:41:18;100013.67;;;10.37;59.72
77235;BME280;66253;50.526;14.974;2023-05-27T00:43:47;100014.70;;;10.37;59.64
77235;BME280;66253;50.526;14.974;2023-05-27T00:46:15;100013.73;;;10.35;59.73
77235;BME280;66253;50.526;14.974;2023-05-27T00:48:43;100009.95;;;10.32;59.52
77235;BME280;66253;50.526;14.974;2023-05-27T00:51:12;100009.06;;;10.29;59.62
77235;BME280;66253;50.526;14.974;2023-05-27T00:53:42;100009.49;;;10.26;60.00
77235;BME280;66253;50.526;14.974;2023-05-27T00:56:11;100012.27;;;10.25;59.60
77235;BME280;66253;50.526;14.974;2023-05-27T00:58:41;100008.94;;;10.23;59.69
77235;BME280;66253;50.526;14.974;2023-05-27T01:01:09;100009.52;;;10.17;59.76
77235;BME280;66253;50.526;14.974;2023-05-27T01:03:37;100008.42;;;10.10;60.47
77235;BME280;66253;50.526;14.974;2023-05-27T01:06:11;100015.67;;;10.04;60.19
77235;BME280;66253;50.526;14.974;2023-05-27T01:08:49;100016.05;;;9.99;60.41
77235;BME280;66253;50.526;14.974;2023-05-27T01:11:23;100012.95;;;9.96;61.00
77235;BME280;66253;50.526;14.974;2023-05-27T01:13:58;100006.09;;;9.92;60.92
77235;BME280;66253;50.526;14.974;2023-05-27T01:19:29;100003.08;;;9.87;60.93
77235;BME280;66253;50.526;14.974;2023-05-27T01:22:00;99999.27;;;9.79;60.95
77235;BME280;66253;50.526;14.974;2023-05-27T01:24:28;100000.27;;;9.76;60.97
77235;BME280;66253;50.526;14.974;2023-05-27T01:26:57;100002.34;;;9.75;61.02
77235;BME280;66253;50.526;14.974;2023-05-27T01:29:25;99999.16;;;9.74;61.21
77235;BME280;66253;50.526;14.974;2023-05-27T01:31:57;99997.98;;;9.74;61.37
77235;BME280;66253;50.526;14.974;2023-05-27T01:34:41;99996.08;;;9.74;61.68
77235;BME280;66253;50.526;14.974;2023-05-27T01:37:25;99994.59;;;9.73;61.51
77235;BME280;66253;50.526;14.974;2023-05-27T01:39:54;99993.42;;;9.72;61.76
77235;BME280;66253;50.526;14.974;2023-05-27T01:42:33;99996.40;;;9.71;61.34
77235;BME280;66253;50.526;14.974;2023-05-27T01:45:06;99995.08;;;9.69;61.32
77235;BME280;66253;50.526;14.974;2023-05-27T01:47:35;99998.52;;;9.69;61.42
77235;BME280;66253;50.526;14.974;2023-05-27T01:50:05;99997.19;;;9.68;61.50
77235;BME280;66253;50.526;14.974;2023-05-27T01:52:32;99997.08;;;9.66;61.47
77235;BME280;66253;50.526;14.974;2023-05-27T01:55:02;99999.59;;;9.68;61.31
77235;BME280;66253;50.526;14.974;2023-05-27T01:57:31;99996.52;;;9.68;61.01
77235;BME280;66253;50.526;14.974;2023-05-27T01:59:59;100000.61;;;9.68;61.21
77235;BME280;66253;50.526;14.974;2023-05-27T02:02:28;100007.39;;;9.68;61.08
77235;BME280;66253;50.526;14.974;2023-05-27T02:04:56;100003.50;;;9.68;61.15
77235;BME280;66253;50.526;14.974;2023-05-27T02:07:24;100005.05;;;9.67;60.81
77235;BME280;66253;50.526;14.974;2023-05-27T02:09:52;100002.34;;;9.67;61.10
77235;BME280;66253;50.526;14.974;2023-05-27T02:12:21;100000.04;;;9.64;61.06
77235;BME280;66253;50.526;14.974;2023-05-27T02:14:49;99996.55;;;9.62;61.52
77235;BME280;66253;50.526;14.974;2023-05-27T02:17:17;99997.17;;;9.59;61.68
77235;BME280;66253;50.526;14.974;2023-05-27T02:19:46;99999.89;;;9.55;61.84
77235;BME280;66253;50.526;14.974;2023-05-27T02:22:14;99994.80;;;9.50;61.39
77235;BME280;66253;50.526;14.974;2023-05-27T02:24:43;100001.06;;;9.47;61.51
77235;BME280;66253;50.526;14.974;2023-05-27T02:27:11;100003.05;;;9.44;61.70
77235;BME280;66253;50.526;14.974;2023-05-27T02:29:39;100006.59;;;9.41;61.89
77235;BME280;66253;50.526;14.974;2023-05-27T02:32:08;100008.40;;;9.38;61.86
77235;BME280;66253;50.526;14.974;2023-05-27T02:34:36;100007.98;;;9.35;62.38
77235;BME280;66253;50.526;14.974;2023-05-27T02:37:05;100009.05;;;9.34;62.11
77235;BME280;66253;50.526;14.974;2023-05-27T02:39:35;100008.65;;;9.32;62.41
77235;BME280;66253;50.526;14.974;2023-05-27T02:42:04;100003.77;;;9.30;62.05
77235;BME280;66253;50.526;14.974;2023-05-27T02:44:33;100002.77;;;9.29;62.58
77235;BME280;66253;50.526;14.974;2023-05-27T02:47:03;100002.88;;;9.27;62.31
77235;BME280;66253;50.526;14.974;2023-05-27T02:49:32;100004.56;;;9.23;62.31
77235;BME280;66253;50.526;14.974;2023-05-27T02:52:10;100006.73;;;9.19;62.10
77235;BME280;66253;50.526;14.974;2023-05-27T02:54:39;100002.82;;;9.15;62.68
77235;BME280;66253;50.526;14.974;2023-05-27T02:57:07;100003.29;;;9.11;62.65
77235;BME280;66253;50.526;14.974;2023-05-27T02:59:35;100006.13;;;9.08;62.52
77235;BME280;66253;50.526;14.974;2023-05-27T03:02:04;100005.72;;;9.05;62.80
77235;BME280;66253;50.526;14.974;2023-05-27T03:04:32;100009.39;;;8.98;62.65
77235;BME280;66253;50.526;14.974;2023-05-27T03:07:04;100013.02;;;8.92;62.82
77235;BME280;66253;50.526;14.974;2023-05-27T03:09:33;100009.35;;;8.81;62.96
77235;BME280;66253;50.526;14.974;2023-05-27T03:12:01;100010.31;;;8.78;63.39
77235;BME280;66253;50.526;14.974;2023-05-27T03:14:30;100012.88;;;8.72;63.53
77235;BME280;66253;50.526;14.974;2023-05-27T03:16:59;100015.23;;;8.63;63.48
77235;BME280;66253;50.526;14.974;2023-05-27T03:19:27;100011.52;;;8.53;63.67
77235;BME280;66253;50.526;14.974;2023-05-27T03:21:56;100012.23;;;8.47;63.68
77235;BME280;66253;50.526;14.974;2023-05-27T03:24:27;100010.75;;;8.45;64.28
77235;BME280;66253;50.526;14.974;2023-05-27T03:26:58;100012.59;;;8.46;64.39
77235;BME280;66253;50.526;14.974;2023-05-27T03:29:26;100014.04;;;8.49;64.17
77235;BME280;66253;50.526;14.974;2023-05-27T03:32:05;100019.39;;;8.52;64.47
77235;BME280;66253;50.526;14.974;2023-05-27T03:34:36;100018.50;;;8.53;64.32
77235;BME280;66253;50.526;14.974;2023-05-27T03:37:05;100020.83;;;8.54;64.52
77235;BME280;66253;50.526;14.974;2023-05-27T03:39:36;100026.27;;;8.54;64.67
77235;BME280;66253;50.526;14.974;2023-05-27T03:42:05;100026.92;;;8.56;64.52
77235;BME280;66253;50.526;14.974;2023-05-27T03:44:34;100028.58;;;8.57;64.28
77235;BME280;66253;50.526;14.974;2023-05-27T03:47:05;100028.63;;;8.60;64.67
77235;BME280;66253;50.526;14.974;2023-05-27T03:49:33;100029.38;;;8.63;64.35
77235;BME280;66253;50.526;14.974;2023-05-27T03:52:09;100027.34;;;8.68;64.35
77235;BME280;66253;50.526;14.974;2023-05-27T03:54:38;100028.40;;;8.72;64.82
77235;BME280;66253;50.526;14.974;2023-05-27T03:57:06;100030.16;;;8.75;64.85
77235;BME280;66253;50.526;14.974;2023-05-27T03:59:45;100033.02;;;8.81;64.79
77235;BME280;66253;50.526;14.974;2023-05-27T04:02:13;100033.37;;;8.85;64.55
77235;BME280;66253;50.526;14.974;2023-05-27T04:04:41;100038.84;;;8.89;64.73
77235;BME280;66253;50.526;14.974;2023-05-27T04:07:10;100039.84;;;8.95;64.72
77235;BME280;66253;50.526;14.974;2023-05-27T04:09:38;100038.44;;;9.05;64.69
77235;BME280;66253;50.526;14.974;2023-05-27T04:12:07;100038.42;;;9.15;64.61
77235;BME280;66253;50.526;14.974;2023-05-27T04:14:35;100042.65;;;9.25;64.66
77235;BME280;66253;50.526;14.974;2023-05-27T04:17:07;100047.06;;;9.34;64.50
77235;BME280;66253;50.526;14.974;2023-05-27T04:19:35;100050.46;;;9.44;64.54
77235;BME280;66253;50.526;14.974;2023-05-27T04:22:04;100052.17;;;9.53;63.86
77235;BME280;66253;50.526;14.974;2023-05-27T04:24:33;100053.58;;;9.65;63.90
77235;BME280;66253;50.526;14.974;2023-05-27T04:27:01;100049.26;;;9.75;63.68
77235;BME280;66253;50.526;14.974;2023-05-27T04:29:32;100046.81;;;9.81;63.63
77235;BME280;66253;50.526;14.974;2023-05-27T04:32:11;100048.89;;;9.89;63.78
77235;BME280;66253;50.526;14.974;2023-05-27T04:34:39;100048.84;;;9.99;63.52
77235;BME280;66253;50.526;14.974;2023-05-27T04:37:08;100047.35;;;10.10;63.73
77235;BME280;66253;50.526;14.974;2023-05-27T04:39:56;100050.94;;;10.28;63.44
77235;BME280;66253;50.526;14.974;2023-05-27T04:42:24;100045.60;;;10.45;62.81
77235;BME280;66253;50.526;14.974;2023-05-27T04:44:53;100046.20;;;10.64;62.78
77235;BME280;66253;50.526;14.974;2023-05-27T04:47:21;100046.05;;;10.83;62.12
77235;BME280;66253;50.526;14.974;2023-05-27T04:49:49;100054.40;;;11.02;61.83
77235;BME280;66253;50.526;14.974;2023-05-27T04:52:18;100052.70;;;11.17;61.23
77235;BME280;66253;50.526;14.974;2023-05-27T04:54:46;100051.28;;;11.34;61.41
77235;BME280;66253;50.526;14.974;2023-05-27T04:57:15;100053.75;;;11.51;60.91
77235;BME280;66253;50.526;14.974;2023-05-27T04:59:43;100056.89;;;11.68;60.37
77235;BME280;66253;50.526;14.974;2023-05-27T05:02:12;100055.13;;;11.84;60.17
77235;BME280;66253;50.526;14.974;2023-05-27T05:04:40;100055.23;;;12.00;59.81
77235;BME280;66253;50.526;14.974;2023-05-27T05:07:09;100052.43;;;12.15;59.45
77235;BME280;66253;50.526;14.974;2023-05-27T05:09:37;100052.14;;;12.28;59.20
77235;BME280;66253;50.526;14.974;2023-05-27T05:12:06;100053.52;;;12.41;59.16
77235;BME280;66253;50.526;14.974;2023-05-27T05:14:34;100052.96;;;12.56;59.03
77235;BME280;66253;50.526;14.974;2023-05-27T05:17:03;100051.11;;;12.69;58.75
77235;BME280;66253;50.526;14.974;2023-05-27T05:19:31;100053.65;;;12.82;58.40
77235;BME280;66253;50.526;14.974;2023-05-27T05:22:00;100047.29;;;12.92;57.92
77235;BME280;66253;50.526;14.974;2023-05-27T05:24:28;100043.48;;;13.03;57.78
77235;BME280;66253;50.526;14.974;2023-05-27T05:26:56;100040.83;;;13.14;57.11
77235;BME280;66253;50.526;14.974;2023-05-27T05:29:25;100043.58;;;13.28;57.23
77235;BME280;66253;50.526;14.974;2023-05-27T05:31:53;100044.95;;;13.40;57.16
77235;BME280;66253;50.526;14.974;2023-05-27T05:34:21;100045.65;;;13.53;56.40
77235;BME280;66253;50.526;14.974;2023-05-27T05:36:50;100051.81;;;13.59;56.17
77235;BME280;66253;50.526;14.974;2023-05-27T05:39:18;100052.35;;;13.68;56.26
77235;BME280;66253;50.526;14.974;2023-05-27T05:41:46;100052.45;;;13.79;55.80
77235;BME280;66253;50.526;14.974;2023-05-27T05:44:14;100053.87;;;13.90;55.44
77235;BME280;66253;50.526;14.974;2023-05-27T05:46:43;100056.16;;;13.98;55.09
77235;BME280;66253;50.526;14.974;2023-05-27T05:49:11;100056.50;;;14.08;55.24
77235;BME280;66253;50.526;14.974;2023-05-27T05:51:39;100057.79;;;14.21;55.24
77235;BME280;66253;50.526;14.974;2023-05-27T05:54:08;100059.73;;;14.32;54.50
77235;BME280;66253;50.526;14.974;2023-05-27T05:56:36;100061.28;;;14.41;54.84
77235;BME280;66253;50.526;14.974;2023-05-27T05:59:05;100059.61;;;14.52;54.14
77235;BME280;66253;50.526;14.974;2023-05-27T06:01:33;100057.27;;;14.63;53.27
77235;BME280;66253;50.526;14.974;2023-05-27T06:04:01;100059.17;;;14.74;53.22
77235;BME280;66253;50.526;14.974;2023-05-27T06:06:29;100053.83;;;14.86;53.42
77235;BME280;66253;50.526;14.974;2023-05-27T06:08:58;100054.06;;;14.99;53.08
77235;BME280;66253;50.526;14.974;2023-05-27T06:11:26;100056.73;;;15.12;52.81
77235;BME280;66253;50.526;14.974;2023-05-27T06:13:54;100054.36;;;15.22;52.66
77235;BME280;66253;50.526;14.974;2023-05-27T06:16:23;100050.31;;;15.38;52.62
77235;BME280;66253;50.526;14.974;2023-05-27T06:18:51;100054.14;;;15.48;51.95
77235;BME280;66253;50.526;14.974;2023-05-27T06:21:19;100053.66;;;15.58;51.60
77235;BME280;66253;50.526;14.974;2023-05-27T06:23:48;100052.13;;;15.66;51.16
77235;BME280;66253;50.526;14.974;2023-05-27T06:26:16;100052.21;;;15.70;51.35
77235;BME280;66253;50.526;14.974;2023-05-27T06:28:44;100058.31;;;15.78;51.02
77235;BME280;66253;50.526;14.974;2023-05-27T06:31:13;100059.32;;;15.86;50.85
77235;BME280;66253;50.526;14.974;2023-05-27T06:33:42;100059.66;;;15.94;50.65
77235;BME280;66253;50.526;14.974;2023-05-27T06:36:10;100059.54;;;16.04;50.63
77235;BME280;66253;50.526;14.974;2023-05-27T06:38:39;100063.52;;;16.14;50.47
77235;BME280;66253;50.526;14.974;2023-05-27T06:41:07;100063.94;;;16.26;50.43
77235;BME280;66253;50.526;14.974;2023-05-27T06:43:35;100063.48;;;16.33;49.64
77235;BME280;66253;50.526;14.974;2023-05-27T06:46:03;100062.17;;;16.35;49.85
77235;BME280;66253;50.526;14.974;2023-05-27T06:48:32;100063.80;;;16.39;49.92
77235;BME280;66253;50.526;14.974;2023-05-27T06:51:01;100059.29;;;16.39;49.49
77235;BME280;66253;50.526;14.974;2023-05-27T06:53:30;100060.83;;;16.39;49.84
77235;BME280;66253;50.526;14.974;2023-05-27T06:55:58;100061.05;;;16.46;49.69
77235;BME280;66253;50.526;14.974;2023-05-27T06:58:26;100060.71;;;16.56;49.73
77235;BME280;66253;50.526;14.974;2023-05-27T07:00:55;100061.20;;;16.62;49.32
77235;BME280;66253;50.526;14.974;2023-05-27T07:03:23;100061.83;;;16.68;48.91
77235;BME280;66253;50.526;14.974;2023-05-27T07:05:51;100064.58;;;16.76;49.10
77235;BME280;66253;50.526;14.974;2023-05-27T07:08:20;100063.36;;;16.86;48.84
77235;BME280;66253;50.526;14.974;2023-05-27T07:10:48;100061.52;;;16.99;48.27
77235;BME280;66253;50.526;14.974;2023-05-27T07:13:17;100058.65;;;17.10;48.33
77235;BME280;66253;50.526;14.974;2023-05-27T07:15:45;100060.39;;;17.22;48.35
77235;BME280;66253;50.526;14.974;2023-05-27T07:18:13;100058.27;;;17.35;48.36
77235;BME280;66253;50.526;14.974;2023-05-27T07:20:42;100057.00;;;17.46;47.53
77235;BME280;66253;50.526;14.974;2023-05-27T07:23:10;100056.52;;;17.45;46.77
77235;BME280;66253;50.526;14.974;2023-05-27T07:25:38;100054.88;;;17.46;47.56
77235;BME280;66253;50.526;14.974;2023-05-27T07:28:07;100053.20;;;17.57;47.06
77235;BME280;66253;50.526;14.974;2023-05-27T07:30:35;100054.65;;;17.66;46.61
77235;BME280;66253;50.526;14.974;2023-05-27T07:33:04;100053.15;;;17.68;46.92
77235;BME280;66253;50.526;14.974;2023-05-27T07:35:32;100053.50;;;17.75;47.03
77235;BME280;66253;50.526;14.974;2023-05-27T07:38:00;100057.21;;;17.81;46.37
77235;BME280;66253;50.526;14.974;2023-05-27T07:40:28;100055.95;;;17.80;45.82
77235;BME280;66253;50.526;14.974;2023-05-27T07:42:57;100055.23;;;17.75;45.87
77235;BME280;66253;50.526;14.974;2023-05-27T07:45:25;100056.98;;;17.80;45.90
77235;BME280;66253;50.526;14.974;2023-05-27T07:47:54;100048.91;;;17.91;46.06
77235;BME280;66253;50.526;14.974;2023-05-27T07:50:22;100050.49;;;18.00;45.59
77235;BME280;66253;50.526;14.974;2023-05-27T07:52:50;100053.83;;;18.06;45.17
77235;BME280;66253;50.526;14.974;2023-05-27T07:55:18;100048.14;;;18.16;45.37
77235;BME280;66253;50.526;14.974;2023-05-27T07:57:47;100044.67;;;18.22;45.06
77235;BME280;66253;50.526;14.974;2023-05-27T08:00:16;100046.93;;;18.25;44.85
77235;BME280;66253;50.526;14.974;2023-05-27T08:02:44;100042.15;;;18.26;45.43
77235;BME280;66253;50.526;14.974;2023-05-27T08:05:12;100037.90;;;18.41;44.82
77235;BME280;66253;50.526;14.974;2023-05-27T08:07:40;100029.19;;;18.49;44.02
77235;BME280;66253;50.526;14.974;2023-05-27T08:10:10;100027.70;;;18.50;43.69
77235;BME280;66253;50.526;14.974;2023-05-27T08:12:38;100026.04;;;18.52;43.56
77235;BME280;66253;50.526;14.974;2023-05-27T08:15:08;100024.54;;;18.49;43.33
77235;BME280;66253;50.526;14.974;2023-05-27T08:17:36;100024.23;;;18.51;43.40
77235;BME280;66253;50.526;14.974;2023-05-27T08:20:05;100021.23;;;18.60;43.06
77235;BME280;66253;50.526;14.974;2023-05-27T08:22:34;100017.07;;;18.72;43.54
77235;BME280;66253;50.526;14.974;2023-05-27T08:25:02;100016.23;;;18.79;42.23
77235;BME280;66253;50.526;14.974;2023-05-27T08:27:48;100014.81;;;18.68;40.75
77235;BME280;66253;50.526;14.974;2023-05-27T08:30:17;100013.41;;;18.59;41.42
77235;BME280;66253;50.526;14.974;2023-05-27T08:32:46;100015.34;;;18.56;42.52
77235;BME280;66253;50.526;14.974;2023-05-27T08:35:15;100016.92;;;18.72;42.99
77235;BME280;66253;50.526;14.974;2023-05-27T08:37:43;100018.41;;;18.91;42.22
77235;BME280;66253;50.526;14.974;2023-05-27T08:40:14;100018.46;;;19.08;41.98
77235;BME280;66253;50.526;14.974;2023-05-27T08:42:43;100016.97;;;19.14;41.82
77235;BME280;66253;50.526;14.974;2023-05-27T08:45:12;100010.15;;;19.23;41.99
77235;BME280;66253;50.526;14.974;2023-05-27T08:47:41;100009.94;;;19.39;41.32
77235;BME280;66253;50.526;14.974;2023-05-27T08:50:10;100008.10;;;19.46;40.90
77235;BME280;66253;50.526;14.974;2023-05-27T08:52:45;100007.74;;;19.53;41.06
77235;BME280;66253;50.526;14.974;2023-05-27T08:55:16;100005.58;;;19.59;40.94
77235;BME280;66253;50.526;14.974;2023-05-27T08:57:49;99998.66;;;19.67;40.51
77235;BME280;66253;50.526;14.974;2023-05-27T09:00:18;99994.27;;;19.75;40.45
77235;BME280;66253;50.526;14.974;2023-05-27T09:02:46;99994.43;;;19.85;40.63
77235;BME280;66253;50.526;14.974;2023-05-27T09:05:16;99994.17;;;19.97;39.88
77235;BME280;66253;50.526;14.974;2023-05-27T09:07:44;99989.02;;;19.96;39.24
77235;BME280;66253;50.526;14.974;2023-05-27T09:10:13;99988.02;;;19.98;39.46
77235;BME280;66253;50.526;14.974;2023-05-27T09:12:43;99983.60;;;20.05;38.18
77235;BME280;66253;50.526;14.974;2023-05-27T09:15:13;99979.81;;;19.98;37.02
77235;BME280;66253;50.526;14.974;2023-05-27T09:17:42;99976.20;;;19.96;38.81
77235;BME280;66253;50.526;14.974;2023-05-27T09:20:12;99972.70;;;20.09;38.54
77235;BME280;66253;50.526;14.974;2023-05-27T09:22:40;99969.48;;;20.24;39.00
77235;BME280;66253;50.526;14.974;2023-05-27T09:25:10;99969.41;;;20.33;38.51
77235;BME280;66253;50.526;14.974;2023-05-27T09:27:37;99965.34;;;20.38;39.05
77235;BME280;66253;50.526;14.974;2023-05-27T09:30:09;99960.90;;;20.58;38.88
77235;BME280;66253;50.526;14.974;2023-05-27T09:32:38;99965.62;;;20.66;37.42
77235;BME280;66253;50.526;14.974;2023-05-27T09:35:07;99961.58;;;20.63;37.92
77235;BME280;66253;50.526;14.974;2023-05-27T09:37:38;99960.06;;;20.58;36.03
77235;BME280;66253;50.526;14.974;2023-05-27T09:40:09;99958.31;;;20.54;36.81
77235;BME280;66253;50.526;14.974;2023-05-27T09:42:45;99960.80;;;20.68;36.51
77235;BME280;66253;50.526;14.974;2023-05-27T09:45:16;99957.63;;;20.84;35.20
77235;BME280;66253;50.526;14.974;2023-05-27T09:47:49;99957.45;;;20.90;34.10
77235;BME280;66253;50.526;14.974;2023-05-27T09:50:19;99957.08;;;20.80;34.60
77235;BME280;66253;50.526;14.974;2023-05-27T09:52:48;99953.33;;;20.85;34.33
77235;BME280;66253;50.526;14.974;2023-05-27T09:55:17;99953.50;;;20.94;34.95
77235;BME280;66253;50.526;14.974;2023-05-27T09:57:46;99952.83;;;21.11;33.97
77235;BME280;66253;50.526;14.974;2023-05-27T10:00:16;99948.53;;;21.16;34.80
77235;BME280;66253;50.526;14.974;2023-05-27T10:02:46;99948.02;;;21.24;34.41
77235;BME280;66253;50.526;14.974;2023-05-27T10:05:16;99946.05;;;21.27;35.04
77235;BME280;66253;50.526;14.974;2023-05-27T10:07:46;99944.20;;;21.32;34.48
77235;BME280;66253;50.526;14.974;2023-05-27T10:10:16;99944.89;;;21.32;33.74
77235;BME280;66253;50.526;14.974;2023-05-27T10:12:46;99938.98;;;21.34;34.58
77235;BME280;66253;50.526;14.974;2023-05-27T10:15:24;99937.46;;;21.42;34.25
77235;BME280;66253;50.526;14.974;2023-05-27T10:17:55;99936.20;;;21.42;32.37
77235;BME280;66253;50.526;14.974;2023-05-27T10:20:29;99931.75;;;21.38;33.23
77235;BME280;66253;50.526;14.974;2023-05-27T10:23:07;99930.71;;;21.45;34.21
77235;BME280;66253;50.526;14.974;2023-05-27T10:25:40;99926.96;;;21.66;34.01
77235;BME280;66253;50.526;14.974;2023-05-27T10:28:08;99920.96;;;21.87;33.86
77235;BME280;66253;50.526;14.974;2023-05-27T10:30:46;99920.52;;;22.00;33.23
77235;BME280;66253;50.526;14.974;2023-05-27T10:33:14;99913.38;;;21.98;32.96
77235;BME280;66253;50.526;14.974;2023-05-27T10:35:43;99908.44;;;21.99;33.29
77235;BME280;66253;50.526;14.974;2023-05-27T10:38:18;99909.23;;;21.97;32.45
77235;BME280;66253;50.526;14.974;2023-05-27T10:40:47;99907.02;;;21.97;33.88
77235;BME280;66253;50.526;14.974;2023-05-27T10:43:19;99904.89;;;22.18;34.04
77235;BME280;66253;50.526;14.974;2023-05-27T10:45:47;99903.23;;;22.40;33.13
77235;BME280;66253;50.526;14.974;2023-05-27T10:48:20;99902.33;;;22.47;32.39
77235;BME280;66253;50.526;14.974;2023-05-27T10:50:52;99899.06;;;22.51;32.72
77235;BME280;66253;50.526;14.974;2023-05-27T10:53:21;99902.77;;;22.56;33.24
77235;BME280;66253;50.526;14.974;2023-05-27T10:55:50;99898.54;;;22.60;33.25
77235;BME280;66253;50.526;14.974;2023-05-27T10:58:19;99897.46;;;22.62;32.63
77235;BME280;66253;50.526;14.974;2023-05-27T11:00:50;99896.55;;;22.50;31.55
77235;BME280;66253;50.526;14.974;2023-05-27T11:03:20;99896.67;;;22.45;32.89
77235;BME280;66253;50.526;14.974;2023-05-27T11:05:57;99894.02;;;22.43;32.32
77235;BME280;66253;50.526;14.974;2023-05-27T11:08:26;99891.54;;;22.38;32.99
77235;BME280;66253;50.526;14.974;2023-05-27T11:10:59;99889.56;;;22.37;32.63
77235;BME280;66253;50.526;14.974;2023-05-27T11:13:35;99885.52;;;22.41;32.89
77235;BME280;66253;50.526;14.974;2023-05-27T11:16:05;99884.45;;;22.45;32.39
77235;BME280;66253;50.526;14.974;2023-05-27T11:18:38;99885.44;;;22.40;32.09
77235;BME280;66253;50.526;14.974;2023-05-27T11:21:07;99881.04;;;22.44;32.87
77235;BME280;66253;50.526;14.974;2023-05-27T11:23:35;99881.86;;;22.48;32.68
77235;BME280;66253;50.526;14.974;2023-05-27T11:26:03;99879.87;;;22.59;32.38
77235;BME280;66253;50.526;14.974;2023-05-27T11:28:32;99869.11;;;22.71;33.52
77235;BME280;66253;50.526;14.974;2023-05-27T11:31:03;99865.52;;;22.94;33.61
77235;BME280;66253;50.526;14.974;2023-05-27T11:33:33;99857.78;;;23.11;32.68
77235;BME280;66253;50.526;14.974;2023-05-27T11:36:07;99855.43;;;23.15;32.66
77235;BME280;66253;50.526;14.974;2023-05-27T11:38:46;99854.55;;;23.10;31.43
77235;BME280;66253;50.526;14.974;2023-05-27T11:41:16;99846.38;;;22.95;31.83
77235;BME280;66253;50.526;14.974;2023-05-27T11:43:56;99846.17;;;22.96;32.56
77235;BME280;66253;50.526;14.974;2023-05-27T11:46:34;99845.42;;;22.98;32.33
77235;BME280;66253;50.526;14.974;2023-05-27T11:49:04;99841.86;;;23.01;32.73
77235;BME280;66253;50.526;14.974;2023-05-27T11:51:34;99838.88;;;22.95;32.11
77235;BME280;66253;50.526;14.974;2023-05-27T11:54:05;99836.85;;;22.91;32.93
77235;BME280;66253;50.526;14.974;2023-05-27T11:56:34;99834.18;;;22.93;32.61
77235;BME280;66253;50.526;14.974;2023-05-27T11:59:02;99834.85;;;23.01;32.82
77235;BME280;66253;50.526;14.974;2023-05-27T12:01:30;99828.71;;;22.89;31.73
77235;BME280;66253;50.526;14.974;2023-05-27T12:03:59;99827.00;;;22.89;32.95
77235;BME280;66253;50.526;14.974;2023-05-27T12:06:27;99821.56;;;23.00;32.78
77235;BME280;66253;50.526;14.974;2023-05-27T12:08:55;99817.23;;;23.05;33.20
77235;BME280;66253;50.526;14.974;2023-05-27T12:11:24;99822.11;;;23.17;32.79
77235;BME280;66253;50.526;14.974;2023-05-27T12:13:54;99818.08;;;23.17;32.44
77235;BME280;66253;50.526;14.974;2023-05-27T12:16:22;99818.88;;;23.11;32.77
77235;BME280;66253;50.526;14.974;2023-05-27T12:18:50;99819.55;;;23.09;33.09
77235;BME280;66253;50.526;14.974;2023-05-27T12:21:19;99818.45;;;23.19;33.71
77235;BME280;66253;50.526;14.974;2023-05-27T12:23:47;99815.87;;;23.38;33.49
77235;BME280;66253;50.526;14.974;2023-05-27T12:26:16;99814.98;;;23.54;32.81
77235;BME280;66253;50.526;14.974;2023-05-27T12:28:45;99817.71;;;23.64;32.84
77235;BME280;66253;50.526;14.974;2023-05-27T12:31:13;99815.42;;;23.68;32.16
77235;BME280;66253;50.526;14.974;2023-05-27T12:33:42;99813.43;;;23.67;32.60
77235;BME280;66253;50.526;14.974;2023-05-27T12:36:10;99814.63;;;23.60;31.32
77235;BME280;66253;50.526;14.974;2023-05-27T12:38:38;99807.27;;;23.49;31.72
77235;BME280;66253;50.526;14.974;2023-05-27T12:41:06;99800.86;;;23.54;32.70
77235;BME280;66253;50.526;14.974;2023-05-27T12:43:35;99796.64;;;23.64;32.56
77235;BME280;66253;50.526;14.974;2023-05-27T12:46:03;99795.70;;;23.74;32.90
77235;BME280;66253;50.526;14.974;2023-05-27T12:48:31;99792.30;;;23.81;33.07
77235;BME280;66253;50.526;14.974;2023-05-27T12:51:00;99789.70;;;23.93;32.87
77235;BME280;66253;50.526;14.974;2023-05-27T12:53:29;99787.52;;;24.06;32.56
77235;BME280;66253;50.526;14.974;2023-05-27T12:55:57;99783.25;;;24.08;32.36
77235;BME280;66253;50.526;14.974;2023-05-27T12:58:25;99789.92;;;24.09;32.03
77235;BME280;66253;50.526;14.974;2023-05-27T13:00:53;99787.52;;;23.94;32.30